sensor_id;sensor_type;location;lat;lon;timestamp;pressure;altitude;pressure_sealevel;temperature;humidity
59194;BME280;44967;48.598;15.650;2022-12-11T00:01:14;97070.88;;;5.43;52.96
59194;BME280;44967;48.598;15.650;2022-12-11T00:03:40;97071.81;;;5.51;52.45
59194;BME280;44967;48.598;15.650;2022-12-11T00:06:07;97066.19;;;5.60;52.84
59194;BME280;44967;48.598;15.650;2022-12-11T00:08:33;97077.13;;;5.63;53.16
59194;BME280;44967;48.598;15.650;2022-12-11T00:10:59;97059.09;;;5.19;53.02
59194;BME280;44967;48.598;15.650;2022-12-11T00:13:25;97058.34;;;4.55;53.39
59194;BME280;44967;48.598;15.650;2022-12-11T00:15:50;97071.06;;;5.34;53.40
59194;BME280;44967;48.598;15.650;2022-12-11T00:18:16;97066.56;;;5.58;52.57
59194;BME280;44967;48.598;15.650;2022-12-11T00:20:42;97072.63;;;5.19;54.12
59194;BME280;44967;48.598;15.650;2022-12-11T00:23:07;97066.78;;;5.17;52.18
59194;BME280;44967;48.598;15.650;2022-12-11T00:25:33;97063.06;;;4.90;53.67
59194;BME280;44967;48.598;15.650;2022-12-11T00:27:59;97056.69;;;5.14;52.94
59194;BME280;44967;48.598;15.650;2022-12-11T00:30:25;97061.75;;;5.00;52.62
59194;BME280;44967;48.598;15.650;2022-12-11T00:32:50;97062.44;;;5.29;53.62
59194;BME280;44967;48.598;15.650;2022-12-11T00:35:16;97056.94;;;5.09;54.03
59194;BME280;44967;48.598;15.650;2022-12-11T00:37:42;97048.53;;;5.30;53.10
59194;BME280;44967;48.598;15.650;2022-12-11T00:40:09;97044.16;;;5.26;52.37
59194;BME280;44967;48.598;15.650;2022-12-11T00:42:34;97041.31;;;4.54;54.32
59194;BME280;44967;48.598;15.650;2022-12-11T00:45:00;97046.91;;;5.10;53.97
59194;BME280;44967;48.598;15.650;2022-12-11T00:47:26;97051.38;;;4.53;54.25
59194;BME280;44967;48.598;15.650;2022-12-11T00:49:51;97048.75;;;4.89;53.98
59194;BME280;44967;48.598;15.650;2022-12-11T00:52:17;97040.75;;;4.93;53.32
59194;BME280;44967;48.598;15.650;2022-12-11T00:54:42;97051.47;;;4.57;54.21
59194;BME280;44967;48.598;15.650;2022-12-11T00:57:08;97046.31;;;5.00;54.22
59194;BME280;44967;48.598;15.650;2022-12-11T00:59:33;97051.03;;;5.39;53.73
59194;BME280;44967;48.598;15.650;2022-12-11T01:02:00;97042.50;;;5.37;53.27
59194;BME280;44967;48.598;15.650;2022-12-11T01:04:25;97049.63;;;4.93;53.10
59194;BME280;44967;48.598;15.650;2022-12-11T01:06:51;97037.41;;;4.84;54.28
59194;BME280;44967;48.598;15.650;2022-12-11T01:09:16;97047.72;;;4.94;52.49
59194;BME280;44967;48.598;15.650;2022-12-11T01:12:01;97044.97;;;5.10;53.27
59194;BME280;44967;48.598;15.650;2022-12-11T01:14:26;97048.22;;;5.00;53.76
59194;BME280;44967;48.598;15.650;2022-12-11T01:16:52;97049.88;;;4.72;54.04
59194;BME280;44967;48.598;15.650;2022-12-11T01:19:18;97053.63;;;4.84;53.49
59194;BME280;44967;48.598;15.650;2022-12-11T01:21:44;97053.97;;;4.66;53.33
59194;BME280;44967;48.598;15.650;2022-12-11T01:24:09;97055.22;;;4.24;54.60
59194;BME280;44967;48.598;15.650;2022-12-11T01:26:35;97052.34;;;4.17;55.02
59194;BME280;44967;48.598;15.650;2022-12-11T01:29:00;97046.38;;;4.39;54.46
59194;BME280;44967;48.598;15.650;2022-12-11T01:31:26;97051.63;;;4.64;54.19
59194;BME280;44967;48.598;15.650;2022-12-11T01:33:55;97051.66;;;4.97;54.21
59194;BME280;44967;48.598;15.650;2022-12-11T01:36:22;97052.94;;;4.87;53.91
59194;BME280;44967;48.598;15.650;2022-12-11T01:38:48;97054.06;;;4.70;53.93
59194;BME280;44967;48.598;15.650;2022-12-11T01:41:15;97042.53;;;4.73;53.96
59194;BME280;44967;48.598;15.650;2022-12-11T01:46:40;97040.75;;;4.93;52.75
59194;BME280;44967;48.598;15.650;2022-12-11T01:49:12;97044.38;;;5.01;53.09
59194;BME280;44967;48.598;15.650;2022-12-11T01:51:48;97045.84;;;5.14;52.61
59194;BME280;44967;48.598;15.650;2022-12-11T01:54:19;97042.63;;;4.76;53.75
59194;BME280;44967;48.598;15.650;2022-12-11T01:56:47;97040.72;;;4.77;52.86
59194;BME280;44967;48.598;15.650;2022-12-11T01:59:17;97038.34;;;4.43;52.80
59194;BME280;44967;48.598;15.650;2022-12-11T02:02:20;97050.06;;;4.79;52.69
59194;BME280;44967;48.598;15.650;2022-12-11T02:04:47;97067.97;;;5.00;52.64
59194;BME280;44967;48.598;15.650;2022-12-11T02:07:14;97072.16;;;4.98;52.27
59194;BME280;44967;48.598;15.650;2022-12-11T02:09:42;97069.34;;;4.78;53.04
59194;BME280;44967;48.598;15.650;2022-12-11T02:18:02;97061.31;;;4.82;53.00
59194;BME280;44967;48.598;15.650;2022-12-11T02:23:22;97058.69;;;4.85;52.20
59194;BME280;44967;48.598;15.650;2022-12-11T02:26:29;97050.97;;;4.23;53.76
59194;BME280;44967;48.598;15.650;2022-12-11T02:28:50;97058.06;;;4.44;53.78
59194;BME280;44967;48.598;15.650;2022-12-11T02:31:44;97058.00;;;4.72;53.20
59194;BME280;44967;48.598;15.650;2022-12-11T02:34:36;97065.66;;;4.54;52.87
59194;BME280;44967;48.598;15.650;2022-12-11T02:37:06;97054.78;;;4.83;52.56
59194;BME280;44967;48.598;15.650;2022-12-11T02:39:34;97062.78;;;4.47;52.85
59194;BME280;44967;48.598;15.650;2022-12-11T02:42:03;97063.91;;;4.46;52.14
59194;BME280;44967;48.598;15.650;2022-12-11T02:44:32;97066.75;;;4.37;52.84
59194;BME280;44967;48.598;15.650;2022-12-11T02:46:58;97067.22;;;4.39;53.42
59194;BME280;44967;48.598;15.650;2022-12-11T02:49:25;97064.63;;;4.43;52.57
59194;BME280;44967;48.598;15.650;2022-12-11T02:51:53;97065.31;;;4.72;52.76
59194;BME280;44967;48.598;15.650;2022-12-11T02:54:29;97057.31;;;4.59;52.64
59194;BME280;44967;48.598;15.650;2022-12-11T02:57:07;97053.38;;;4.73;52.05
59194;BME280;44967;48.598;15.650;2022-12-11T02:59:37;97045.59;;;4.39;53.05
59194;BME280;44967;48.598;15.650;2022-12-11T03:02:04;97045.25;;;4.57;53.19
59194;BME280;44967;48.598;15.650;2022-12-11T03:04:31;97052.25;;;4.90;52.02
59194;BME280;44967;48.598;15.650;2022-12-11T03:07:06;97057.31;;;4.91;52.10
59194;BME280;44967;48.598;15.650;2022-12-11T03:09:42;97053.91;;;4.46;52.90
59194;BME280;44967;48.598;15.650;2022-12-11T03:12:11;97040.34;;;4.30;53.00
59194;BME280;44967;48.598;15.650;2022-12-11T03:14:39;97034.97;;;4.62;52.29
59194;BME280;44967;48.598;15.650;2022-12-11T03:17:21;97043.41;;;4.45;53.37
59194;BME280;44967;48.598;15.650;2022-12-11T03:25:43;97049.44;;;4.54;52.73
59194;BME280;44967;48.598;15.650;2022-12-11T03:28:18;97042.53;;;4.73;52.40
59194;BME280;44967;48.598;15.650;2022-12-11T03:30:46;97053.56;;;4.19;54.06
59194;BME280;44967;48.598;15.650;2022-12-11T03:33:36;97047.97;;;3.83;55.33
59194;BME280;44967;48.598;15.650;2022-12-11T03:36:09;97054.16;;;4.73;53.94
59194;BME280;44967;48.598;15.650;2022-12-11T03:41:04;97047.63;;;4.74;53.42
59194;BME280;44967;48.598;15.650;2022-12-11T03:43:32;97040.94;;;4.23;54.53
59194;BME280;44967;48.598;15.650;2022-12-11T03:45:59;97037.16;;;4.12;54.89
59194;BME280;44967;48.598;15.650;2022-12-11T03:48:29;97040.53;;;4.37;54.97
59194;BME280;44967;48.598;15.650;2022-12-11T03:50:58;97048.97;;;4.20;54.98
59194;BME280;44967;48.598;15.650;2022-12-11T03:53:25;97039.63;;;4.33;53.83
59194;BME280;44967;48.598;15.650;2022-12-11T03:55:52;97042.72;;;4.48;54.34
59194;BME280;44967;48.598;15.650;2022-12-11T03:58:18;97042.34;;;4.33;54.01
59194;BME280;44967;48.598;15.650;2022-12-11T04:00:44;97033.03;;;4.31;53.52
59194;BME280;44967;48.598;15.650;2022-12-11T04:03:09;97047.13;;;3.95;54.06
59194;BME280;44967;48.598;15.650;2022-12-11T04:05:40;97050.63;;;4.41;53.83
59194;BME280;44967;48.598;15.650;2022-12-11T04:08:06;97044.66;;;4.47;53.40
59194;BME280;44967;48.598;15.650;2022-12-11T04:10:31;97035.31;;;4.61;53.57
59194;BME280;44967;48.598;15.650;2022-12-11T04:12:57;97044.47;;;4.72;53.85
59194;BME280;44967;48.598;15.650;2022-12-11T04:15:23;97042.50;;;4.69;53.49
59194;BME280;44967;48.598;15.650;2022-12-11T04:17:49;97038.72;;;4.74;53.52
59194;BME280;44967;48.598;15.650;2022-12-11T04:20:33;97045.44;;;4.80;53.57
59194;BME280;44967;48.598;15.650;2022-12-11T04:23:18;97049.78;;;4.36;54.75
59194;BME280;44967;48.598;15.650;2022-12-11T04:26:14;97034.75;;;4.23;54.07
59194;BME280;44967;48.598;15.650;2022-12-11T04:28:42;97037.44;;;4.23;54.44
59194;BME280;44967;48.598;15.650;2022-12-11T04:31:13;97052.66;;;4.60;52.89
59194;BME280;44967;48.598;15.650;2022-12-11T04:33:39;97038.81;;;4.61;53.14
59194;BME280;44967;48.598;15.650;2022-12-11T04:36:06;97050.34;;;4.58;53.06
59194;BME280;44967;48.598;15.650;2022-12-11T04:38:32;97046.13;;;4.45;53.53
59194;BME280;44967;48.598;15.650;2022-12-11T04:40:59;97050.13;;;4.06;53.01
59194;BME280;44967;48.598;15.650;2022-12-11T04:43:25;97051.91;;;4.15;53.21
59194;BME280;44967;48.598;15.650;2022-12-11T04:46:21;97056.13;;;4.28;53.92
59194;BME280;44967;48.598;15.650;2022-12-11T04:48:48;97052.59;;;3.83;54.03
59194;BME280;44967;48.598;15.650;2022-12-11T04:51:14;97055.75;;;3.85;53.91
59194;BME280;44967;48.598;15.650;2022-12-11T04:53:41;97051.03;;;4.10;52.84
59194;BME280;44967;48.598;15.650;2022-12-11T04:56:08;97053.97;;;4.05;53.34
59194;BME280;44967;48.598;15.650;2022-12-11T04:58:34;97058.81;;;4.28;52.63
59194;BME280;44967;48.598;15.650;2022-12-11T05:01:13;97054.03;;;4.37;52.55
59194;BME280;44967;48.598;15.650;2022-12-11T05:03:39;97058.25;;;4.51;52.27
59194;BME280;44967;48.598;15.650;2022-12-11T05:06:07;97051.09;;;4.14;52.80
59194;BME280;44967;48.598;15.650;2022-12-11T05:08:35;97050.88;;;4.19;52.19
59194;BME280;44967;48.598;15.650;2022-12-11T05:11:03;97069.94;;;4.10;53.25
59194;BME280;44967;48.598;15.650;2022-12-11T05:13:30;97058.94;;;4.48;52.07
59194;BME280;44967;48.598;15.650;2022-12-11T05:15:57;97052.84;;;4.51;52.31
59194;BME280;44967;48.598;15.650;2022-12-11T05:18:23;97064.00;;;4.49;52.45
59194;BME280;44967;48.598;15.650;2022-12-11T05:23:21;97055.44;;;4.03;51.63
59194;BME280;44967;48.598;15.650;2022-12-11T05:25:54;97070.81;;;4.15;52.17
59194;BME280;44967;48.598;15.650;2022-12-11T05:28:21;97082.84;;;3.89;52.00
59194;BME280;44967;48.598;15.650;2022-12-11T05:30:47;97086.28;;;3.73;52.33
59194;BME280;44967;48.598;15.650;2022-12-11T05:33:13;97085.69;;;3.80;52.58
59194;BME280;44967;48.598;15.650;2022-12-11T05:35:46;97079.97;;;3.69;52.58
59194;BME280;44967;48.598;15.650;2022-12-11T05:38:12;97079.34;;;3.88;51.36
59194;BME280;44967;48.598;15.650;2022-12-11T05:40:37;97087.28;;;4.38;51.42
59194;BME280;44967;48.598;15.650;2022-12-11T05:43:03;97086.69;;;4.61;50.71
59194;BME280;44967;48.598;15.650;2022-12-11T05:45:28;97081.44;;;3.66;52.30
59194;BME280;44967;48.598;15.650;2022-12-11T05:47:54;97084.31;;;3.86;51.67
59194;BME280;44967;48.598;15.650;2022-12-11T05:50:20;97097.91;;;3.36;53.00
59194;BME280;44967;48.598;15.650;2022-12-11T05:52:45;97094.69;;;3.72;51.77
59194;BME280;44967;48.598;15.650;2022-12-11T05:55:11;97105.91;;;3.33;52.05
59194;BME280;44967;48.598;15.650;2022-12-11T05:57:37;97105.81;;;3.82;51.97
59194;BME280;44967;48.598;15.650;2022-12-11T06:00:03;97101.69;;;4.14;50.79
59194;BME280;44967;48.598;15.650;2022-12-11T06:02:29;97099.22;;;4.08;50.46
59194;BME280;44967;48.598;15.650;2022-12-11T06:04:55;97097.41;;;4.13;51.28
59194;BME280;44967;48.598;15.650;2022-12-11T06:07:20;97108.69;;;4.02;50.98
59194;BME280;44967;48.598;15.650;2022-12-11T06:09:46;97104.66;;;3.96;51.49
59194;BME280;44967;48.598;15.650;2022-12-11T06:12:12;97102.09;;;3.87;51.49
59194;BME280;44967;48.598;15.650;2022-12-11T06:14:38;97105.81;;;3.95;52.17
59194;BME280;44967;48.598;15.650;2022-12-11T06:17:03;97105.59;;;3.88;51.96
59194;BME280;44967;48.598;15.650;2022-12-11T06:19:29;97113.91;;;3.95;50.79
59194;BME280;44967;48.598;15.650;2022-12-11T06:21:54;97112.69;;;3.80;51.49
59194;BME280;44967;48.598;15.650;2022-12-11T06:24:20;97121.56;;;4.21;50.94
59194;BME280;44967;48.598;15.650;2022-12-11T06:26:46;97123.09;;;4.35;50.17
59194;BME280;44967;48.598;15.650;2022-12-11T06:29:11;97126.19;;;3.92;51.19
59194;BME280;44967;48.598;15.650;2022-12-11T06:31:37;97121.72;;;3.34;52.34
59194;BME280;44967;48.598;15.650;2022-12-11T06:34:02;97117.28;;;3.92;50.95
59194;BME280;44967;48.598;15.650;2022-12-11T06:36:28;97123.31;;;4.01;50.83
59194;BME280;44967;48.598;15.650;2022-12-11T06:38:54;97123.75;;;3.50;51.05
59194;BME280;44967;48.598;15.650;2022-12-11T06:41:20;97131.94;;;3.78;50.68
59194;BME280;44967;48.598;15.650;2022-12-11T06:43:45;97132.06;;;3.57;52.07
59194;BME280;44967;48.598;15.650;2022-12-11T06:46:16;97136.00;;;3.47;51.18
59194;BME280;44967;48.598;15.650;2022-12-11T06:48:42;97136.69;;;3.32;52.34
59194;BME280;44967;48.598;15.650;2022-12-11T06:51:13;97139.50;;;3.35;52.76
59194;BME280;44967;48.598;15.650;2022-12-11T06:53:40;97141.06;;;3.49;52.11
59194;BME280;44967;48.598;15.650;2022-12-11T06:56:09;97138.72;;;3.60;52.06
59194;BME280;44967;48.598;15.650;2022-12-11T06:58:36;97149.03;;;3.70;51.82
59194;BME280;44967;48.598;15.650;2022-12-11T07:01:02;97145.69;;;3.73;51.21
59194;BME280;44967;48.598;15.650;2022-12-11T07:03:28;97145.47;;;3.53;52.47
59194;BME280;44967;48.598;15.650;2022-12-11T07:05:59;97152.75;;;3.65;52.01
59194;BME280;44967;48.598;15.650;2022-12-11T07:08:27;97156.34;;;3.82;51.52
59194;BME280;44967;48.598;15.650;2022-12-11T07:10:52;97154.56;;;3.11;51.72
59194;BME280;44967;48.598;15.650;2022-12-11T07:13:18;97159.19;;;3.11;51.57
59194;BME280;44967;48.598;15.650;2022-12-11T07:15:43;97154.06;;;2.84;51.59
59194;BME280;44967;48.598;15.650;2022-12-11T07:18:09;97161.22;;;3.26;52.04
59194;BME280;44967;48.598;15.650;2022-12-11T07:20:35;97155.06;;;2.80;52.26
59194;BME280;44967;48.598;15.650;2022-12-11T07:23:01;97159.19;;;3.61;51.32
59194;BME280;44967;48.598;15.650;2022-12-11T07:25:26;97164.81;;;3.68;50.59
59194;BME280;44967;48.598;15.650;2022-12-11T07:27:52;97160.88;;;3.78;51.17
59194;BME280;44967;48.598;15.650;2022-12-11T07:30:18;97161.88;;;3.61;51.45
59194;BME280;44967;48.598;15.650;2022-12-11T07:32:44;97159.72;;;3.66;50.78
59194;BME280;44967;48.598;15.650;2022-12-11T07:35:09;97158.97;;;3.53;51.19
59194;BME280;44967;48.598;15.650;2022-12-11T07:37:35;97159.03;;;3.82;50.96
59194;BME280;44967;48.598;15.650;2022-12-11T07:40:00;97157.47;;;3.81;50.09
59194;BME280;44967;48.598;15.650;2022-12-11T07:42:27;97145.25;;;4.12;50.06
59194;BME280;44967;48.598;15.650;2022-12-11T07:44:53;97154.47;;;4.11;49.71
59194;BME280;44967;48.598;15.650;2022-12-11T07:47:18;97162.34;;;3.50;49.98
59194;BME280;44967;48.598;15.650;2022-12-11T07:49:44;97165.81;;;3.26;50.63
59194;BME280;44967;48.598;15.650;2022-12-11T07:52:10;97171.34;;;3.67;51.42
59194;BME280;44967;48.598;15.650;2022-12-11T07:54:35;97168.91;;;4.03;49.89
59194;BME280;44967;48.598;15.650;2022-12-11T07:57:01;97161.97;;;3.89;50.00
59194;BME280;44967;48.598;15.650;2022-12-11T07:59:26;97180.44;;;3.75;50.92
59194;BME280;44967;48.598;15.650;2022-12-11T08:01:52;97171.22;;;3.51;50.70
59194;BME280;44967;48.598;15.650;2022-12-11T08:04:18;97176.75;;;3.42;50.76
59194;BME280;44967;48.598;15.650;2022-12-11T08:06:43;97176.72;;;3.29;50.65
59194;BME280;44967;48.598;15.650;2022-12-11T08:09:11;97176.03;;;3.70;50.74
59194;BME280;44967;48.598;15.650;2022-12-11T08:11:37;97170.22;;;3.43;50.56
59194;BME280;44967;48.598;15.650;2022-12-11T08:14:03;97166.94;;;3.62;50.87
59194;BME280;44967;48.598;15.650;2022-12-11T08:16:31;97161.34;;;3.67;50.45
59194;BME280;44967;48.598;15.650;2022-12-11T08:18:57;97162.09;;;3.80;50.72
59194;BME280;44967;48.598;15.650;2022-12-11T08:21:24;97169.28;;;3.76;50.05
59194;BME280;44967;48.598;15.650;2022-12-11T08:23:51;97164.72;;;4.18;49.50
59194;BME280;44967;48.598;15.650;2022-12-11T08:26:26;97165.72;;;3.72;50.10
59194;BME280;44967;48.598;15.650;2022-12-11T08:28:52;97148.22;;;3.94;50.44
59194;BME280;44967;48.598;15.650;2022-12-11T08:31:18;97166.44;;;4.10;50.08
59194;BME280;44967;48.598;15.650;2022-12-11T08:33:46;97174.91;;;3.83;49.50
59194;BME280;44967;48.598;15.650;2022-12-11T08:36:14;97170.19;;;3.80;49.59
59194;BME280;44967;48.598;15.650;2022-12-11T08:38:41;97175.72;;;3.72;49.74
59194;BME280;44967;48.598;15.650;2022-12-11T08:41:09;97176.97;;;4.28;49.30
59194;BME280;44967;48.598;15.650;2022-12-11T08:43:36;97170.31;;;4.25;48.88
59194;BME280;44967;48.598;15.650;2022-12-11T08:46:04;97176.59;;;4.01;49.66
59194;BME280;44967;48.598;15.650;2022-12-11T08:48:29;97175.56;;;4.05;49.35
59194;BME280;44967;48.598;15.650;2022-12-11T08:51:01;97174.25;;;4.28;48.83
59194;BME280;44967;48.598;15.650;2022-12-11T08:53:28;97171.91;;;4.26;48.34
59194;BME280;44967;48.598;15.650;2022-12-11T08:56:00;97166.44;;;4.10;48.60
59194;BME280;44967;48.598;15.650;2022-12-11T08:58:26;97166.66;;;4.05;48.90
59194;BME280;44967;48.598;15.650;2022-12-11T09:00:52;97170.69;;;4.11;49.54
59194;BME280;44967;48.598;15.650;2022-12-11T09:03:18;97192.59;;;3.81;49.76
59194;BME280;44967;48.598;15.650;2022-12-11T09:05:43;97181.28;;;4.04;49.44
59194;BME280;44967;48.598;15.650;2022-12-11T09:08:09;97174.31;;;4.03;49.57
59194;BME280;44967;48.598;15.650;2022-12-11T09:10:35;97179.50;;;4.08;49.21
59194;BME280;44967;48.598;15.650;2022-12-11T09:13:00;97179.25;;;4.13;48.90
59194;BME280;44967;48.598;15.650;2022-12-11T09:15:26;97179.13;;;4.22;48.80
59194;BME280;44967;48.598;15.650;2022-12-11T09:17:52;97181.34;;;3.79;49.92
59194;BME280;44967;48.598;15.650;2022-12-11T09:20:18;97172.78;;;3.77;49.40
59194;BME280;44967;48.598;15.650;2022-12-11T09:22:44;97182.75;;;4.14;50.20
59194;BME280;44967;48.598;15.650;2022-12-11T09:25:09;97185.03;;;3.99;48.54
59194;BME280;44967;48.598;15.650;2022-12-11T09:27:35;97188.19;;;3.89;48.63
59194;BME280;44967;48.598;15.650;2022-12-11T09:30:00;97182.19;;;4.08;49.47
59194;BME280;44967;48.598;15.650;2022-12-11T09:32:26;97176.38;;;3.81;48.63
59194;BME280;44967;48.598;15.650;2022-12-11T09:34:51;97192.47;;;3.40;49.85
59194;BME280;44967;48.598;15.650;2022-12-11T09:37:17;97180.00;;;3.60;49.23
59194;BME280;44967;48.598;15.650;2022-12-11T09:39:43;97182.72;;;3.60;49.73
59194;BME280;44967;48.598;15.650;2022-12-11T09:42:53;97178.41;;;3.59;49.31
59194;BME280;44967;48.598;15.650;2022-12-11T09:45:20;97180.84;;;4.02;49.43
59194;BME280;44967;48.598;15.650;2022-12-11T09:47:49;97167.78;;;4.16;48.66
59194;BME280;44967;48.598;15.650;2022-12-11T09:50:37;97162.88;;;3.81;48.56
59194;BME280;44967;48.598;15.650;2022-12-11T09:53:15;97159.09;;;3.45;48.47
59194;BME280;44967;48.598;15.650;2022-12-11T09:55:55;97161.75;;;3.20;49.41
59194;BME280;44967;48.598;15.650;2022-12-11T10:19:35;97166.72;;;3.55;48.74
59194;BME280;44967;48.598;15.650;2022-12-11T10:22:01;97151.09;;;3.61;48.53
59194;BME280;44967;48.598;15.650;2022-12-11T10:24:35;97148.00;;;4.00;48.11
59194;BME280;44967;48.598;15.650;2022-12-11T10:27:12;97176.28;;;3.77;48.42
59194;BME280;44967;48.598;15.650;2022-12-11T10:29:38;97148.16;;;3.28;47.94
59194;BME280;44967;48.598;15.650;2022-12-11T10:32:10;97155.34;;;3.74;47.96
59194;BME280;44967;48.598;15.650;2022-12-11T10:34:43;97139.56;;;3.89;48.01
59194;BME280;44967;48.598;15.650;2022-12-11T10:37:11;97144.16;;;4.01;48.16
59194;BME280;44967;48.598;15.650;2022-12-11T10:39:37;97144.81;;;3.97;47.71
59194;BME280;44967;48.598;15.650;2022-12-11T10:42:17;97159.03;;;3.94;48.18
59194;BME280;44967;48.598;15.650;2022-12-11T10:45:01;97157.03;;;3.79;48.19
59194;BME280;44967;48.598;15.650;2022-12-11T10:47:28;97159.41;;;3.68;47.96
59194;BME280;44967;48.598;15.650;2022-12-11T10:50:00;97160.75;;;3.74;48.32
59194;BME280;44967;48.598;15.650;2022-12-11T10:52:31;97156.50;;;3.48;47.63
59194;BME280;44967;48.598;15.650;2022-12-11T10:55:04;97152.91;;;3.44;48.41
59194;BME280;44967;48.598;15.650;2022-12-11T10:57:35;97147.72;;;3.51;47.69
59194;BME280;44967;48.598;15.650;2022-12-11T11:00:04;97141.06;;;3.49;48.86
59194;BME280;44967;48.598;15.650;2022-12-11T11:02:34;97155.13;;;3.67;47.92
59194;BME280;44967;48.598;15.650;2022-12-11T11:05:11;97148.38;;;4.14;47.87
59194;BME280;44967;48.598;15.650;2022-12-11T11:07:37;97148.22;;;3.94;47.05
59194;BME280;44967;48.598;15.650;2022-12-11T11:12:41;97149.91;;;3.87;47.09
59194;BME280;44967;48.598;15.650;2022-12-11T11:15:19;97153.75;;;3.86;48.77
59194;BME280;44967;48.598;15.650;2022-12-11T11:17:49;97136.78;;;3.85;46.96
59194;BME280;44967;48.598;15.650;2022-12-11T11:20:22;97133.25;;;3.97;46.36
59194;BME280;44967;48.598;15.650;2022-12-11T11:22:51;97136.25;;;4.08;47.85
59194;BME280;44967;48.598;15.650;2022-12-11T11:25:22;97134.53;;;4.16;47.24
59194;BME280;44967;48.598;15.650;2022-12-11T11:28:00;97146.53;;;4.59;46.50
59194;BME280;44967;48.598;15.650;2022-12-11T11:30:29;97138.06;;;4.04;46.63
59194;BME280;44967;48.598;15.650;2022-12-11T11:33:03;97127.84;;;4.38;46.52
59194;BME280;44967;48.598;15.650;2022-12-11T11:35:30;97131.31;;;4.38;46.46
59194;BME280;44967;48.598;15.650;2022-12-11T11:51:44;97093.00;;;5.13;45.14
59194;BME280;44967;48.598;15.650;2022-12-11T11:56:45;97105.34;;;4.21;45.38
59194;BME280;44967;48.598;15.650;2022-12-11T11:59:29;97106.31;;;4.42;46.12
59194;BME280;44967;48.598;15.650;2022-12-11T12:01:57;97096.34;;;4.46;46.51
59194;BME280;44967;48.598;15.650;2022-12-11T12:04:25;97105.56;;;4.57;46.46
59194;BME280;44967;48.598;15.650;2022-12-11T12:17:47;97112.00;;;4.24;45.38
59194;BME280;44967;48.598;15.650;2022-12-11T12:28:40;97116.63;;;4.23;44.27
59194;BME280;44967;48.598;15.650;2022-12-11T12:31:21;97121.22;;;3.94;44.80
59194;BME280;44967;48.598;15.650;2022-12-11T12:34:09;97114.00;;;3.98;45.35
59194;BME280;44967;48.598;15.650;2022-12-11T12:44:56;97107.84;;;4.71;44.33
59194;BME280;44967;48.598;15.650;2022-12-11T12:47:25;97103.47;;;4.66;43.46
59194;BME280;44967;48.598;15.650;2022-12-11T12:49:53;97113.25;;;4.87;43.41
59194;BME280;44967;48.598;15.650;2022-12-11T12:52:37;97105.84;;;5.00;44.06
59194;BME280;44967;48.598;15.650;2022-12-11T12:55:19;97111.06;;;4.77;42.90
59194;BME280;44967;48.598;15.650;2022-12-11T12:57:49;97118.22;;;4.85;43.93
59194;BME280;44967;48.598;15.650;2022-12-11T13:02:52;97112.44;;;4.55;45.27
59194;BME280;44967;48.598;15.650;2022-12-11T13:05:31;97121.41;;;4.59;44.98
59194;BME280;44967;48.598;15.650;2022-12-11T13:08:03;97118.47;;;4.64;44.47
59194;BME280;44967;48.598;15.650;2022-12-11T13:10:35;97126.34;;;4.41;45.12
59194;BME280;44967;48.598;15.650;2022-12-11T13:13:04;97118.38;;;4.03;45.47
59194;BME280;44967;48.598;15.650;2022-12-11T13:15:39;97114.03;;;4.27;45.49
59194;BME280;44967;48.598;15.650;2022-12-11T13:18:30;97124.25;;;3.93;46.02
59194;BME280;44967;48.598;15.650;2022-12-11T13:20:56;97119.31;;;3.82;45.67
59194;BME280;44967;48.598;15.650;2022-12-11T13:23:28;97125.09;;;3.68;45.46
59194;BME280;44967;48.598;15.650;2022-12-11T13:25:57;97128.66;;;4.26;44.44
59194;BME280;44967;48.598;15.650;2022-12-11T13:31:22;97120.69;;;4.17;45.34
59194;BME280;44967;48.598;15.650;2022-12-11T13:33:51;97127.06;;;4.25;45.76
59194;BME280;44967;48.598;15.650;2022-12-11T13:38:48;97125.75;;;3.65;46.03
59194;BME280;44967;48.598;15.650;2022-12-11T13:41:17;97127.34;;;4.20;45.33
59194;BME280;44967;48.598;15.650;2022-12-11T13:43:44;97118.22;;;4.12;45.14
59194;BME280;44967;48.598;15.650;2022-12-11T13:46:12;97127.03;;;4.37;45.40
59194;BME280;44967;48.598;15.650;2022-12-11T13:48:52;97112.78;;;3.96;45.39
59194;BME280;44967;48.598;15.650;2022-12-11T13:51:24;97134.53;;;4.16;46.03
59194;BME280;44967;48.598;15.650;2022-12-11T13:54:14;97120.78;;;4.21;45.82
59194;BME280;44967;48.598;15.650;2022-12-11T13:56:51;97137.72;;;4.05;46.01
59194;BME280;44967;48.598;15.650;2022-12-11T13:59:33;97136.56;;;4.19;46.05
59194;BME280;44967;48.598;15.650;2022-12-11T14:02:20;97135.28;;;4.29;45.69
59194;BME280;44967;48.598;15.650;2022-12-11T14:04:49;97125.31;;;4.17;45.58
59194;BME280;44967;48.598;15.650;2022-12-11T14:07:23;97128.50;;;3.94;45.61
59194;BME280;44967;48.598;15.650;2022-12-11T14:10:08;97132.44;;;4.09;46.31
59194;BME280;44967;48.598;15.650;2022-12-11T14:12:43;97119.75;;;3.84;45.53
59194;BME280;44967;48.598;15.650;2022-12-11T14:15:13;97131.00;;;3.99;46.04
59194;BME280;44967;48.598;15.650;2022-12-11T14:17:41;97142.81;;;4.07;46.38
59194;BME280;44967;48.598;15.650;2022-12-11T14:20:20;97148.44;;;3.89;46.71
59194;BME280;44967;48.598;15.650;2022-12-11T14:22:47;97138.47;;;4.18;46.18
59194;BME280;44967;48.598;15.650;2022-12-11T14:25:31;97147.19;;;3.99;45.91
59194;BME280;44967;48.598;15.650;2022-12-11T14:27:57;97134.13;;;4.01;46.21
59194;BME280;44967;48.598;15.650;2022-12-11T14:30:32;97140.75;;;4.16;45.93
59194;BME280;44967;48.598;15.650;2022-12-11T14:33:01;97137.56;;;4.14;45.88
59194;BME280;44967;48.598;15.650;2022-12-11T14:35:31;97139.13;;;4.28;45.58
59194;BME280;44967;48.598;15.650;2022-12-11T14:38:01;97152.63;;;3.87;46.33
59194;BME280;44967;48.598;15.650;2022-12-11T14:40:37;97143.91;;;3.65;46.59
59194;BME280;44967;48.598;15.650;2022-12-11T14:43:46;97150.06;;;3.78;46.27
59194;BME280;44967;48.598;15.650;2022-12-11T14:46:16;97149.38;;;3.81;46.80
59194;BME280;44967;48.598;15.650;2022-12-11T14:48:53;97148.72;;;3.72;46.89
59194;BME280;44967;48.598;15.650;2022-12-11T14:51:20;97155.44;;;3.90;46.96